Time;durP1;ratioP1;P1;durP2;ratioP2;P2;SDS_P1;SDS_P2;PMS_P1;PMS_P2;Temp;Humidity;BMP_temperature;BMP_pressure;BME280_temperature;BME280_humidity;BME280_pressure;Samples;Min_cycle;Max_cycle;Signal;HPM_P1;HPM_P2
2023/01/04 00:01:08;;;;;;;8.60;3.42;;;8.50;99.90;;;;;;5084821;28;20052;-64
2023/01/04 00:03:34;;;;;;;7.55;3.58;;;8.40;99.90;;;;;;5085220;28;20041;-64
2023/01/04 00:06:03;;;;;;;7.43;3.35;;;8.40;99.90;;;;;;5067515;28;20053;-64
2023/01/04 00:08:29;;;;;;;8.38;3.58;;;8.40;99.90;;;;;;5084877;28;20089;-65
2023/01/04 00:11:12;;;;;;;8.70;3.40;;;8.40;99.90;;;;;;5066066;28;20040;-64
2023/01/04 00:13:38;;;;;;;9.20;3.45;;;8.50;99.90;;;;;;5084434;28;20052;-64
2023/01/04 00:16:07;;;;;;;9.93;4.30;;;8.50;99.90;;;;;;5067333;28;20051;-64
2023/01/04 00:18:34;;;;;;;8.90;3.35;;;8.50;99.90;;;;;;5085432;28;20052;-64
2023/01/04 00:21:18;;;;;;;8.18;3.10;;;8.50;99.90;;;;;;5084843;28;20032;-64
2023/01/04 00:23:46;;;;;;;10.57;4.65;;;8.50;99.90;;;;;;5067189;28;20051;-64
2023/01/04 00:26:14;;;;;;;5.90;2.92;;;8.50;99.90;;;;;;5084965;28;20056;-64
2023/01/04 00:28:40;;;;;;;10.95;3.70;;;8.60;99.90;;;;;;5084946;28;20072;-64
2023/01/04 00:31:08;;;;;;;11.52;3.63;;;8.60;99.90;;;;;;5093210;28;20048;-65
2023/01/04 00:33:35;;;;;;;11.15;3.38;;;8.60;99.90;;;;;;5069064;28;20052;-64
2023/01/04 00:36:09;;;;;;;7.95;2.88;;;8.60;99.90;;;;;;5084844;28;20131;-64
2023/01/04 00:38:35;;;;;;;6.03;2.92;;;8.70;99.90;;;;;;5085098;28;20079;-64
2023/01/04 00:41:02;;;;;;;5.75;2.78;;;8.60;99.90;;;;;;5084726;28;20063;-64
2023/01/04 00:43:27;;;;;;;10.00;3.75;;;8.70;99.90;;;;;;5084002;28;20104;-64
2023/01/04 00:45:53;;;;;;;7.32;3.22;;;8.60;99.90;;;;;;5084301;28;20037;-64
2023/01/04 00:48:20;;;;;;;6.43;3.20;;;8.60;99.90;;;;;;5069968;28;20060;-65
2023/01/04 00:50:47;;;;;;;10.18;3.35;;;8.60;99.90;;;;;;5073444;28;20477;-65
2023/01/04 00:53:13;;;;;;;8.60;3.22;;;8.50;99.90;;;;;;5085188;28;20057;-65
2023/01/04 00:55:39;;;;;;;7.82;3.72;;;8.40;99.90;;;;;;5067116;28;20041;-65
2023/01/04 00:58:05;;;;;;;12.38;3.30;;;8.50;99.90;;;;;;5084249;28;20066;-65
2023/01/04 01:00:31;;;;;;;8.77;3.28;;;8.40;99.90;;;;;;5071618;28;20040;-65
2023/01/04 01:02:57;;;;;;;10.70;3.35;;;8.40;99.90;;;;;;5084269;28;20037;-65
2023/01/04 01:05:22;;;;;;;10.27;3.58;;;8.30;99.90;;;;;;5085039;28;20070;-65
2023/01/04 01:07:48;;;;;;;7.55;3.50;;;8.40;99.90;;;;;;5084661;28;20522;-65
2023/01/04 01:10:14;;;;;;;7.72;3.20;;;8.40;99.90;;;;;;5097841;28;20037;-65
2023/01/04 01:12:39;;;;;;;6.63;3.25;;;8.40;99.90;;;;;;5084896;28;20415;-65
2023/01/04 01:15:05;;;;;;;8.75;3.50;;;8.30;99.90;;;;;;5083766;28;20044;-65
2023/01/04 01:17:33;;;;;;;7.32;2.97;;;8.40;99.90;;;;;;5071916;28;20047;-65
2023/01/04 01:19:59;;;;;;;5.70;2.97;;;8.40;99.90;;;;;;5084706;28;20041;-65
2023/01/04 01:22:24;;;;;;;8.90;3.38;;;8.50;99.90;;;;;;5083349;28;20040;-65
2023/01/04 01:24:50;;;;;;;7.60;3.83;;;8.40;99.90;;;;;;5069019;28;20045;-65
2023/01/04 01:27:16;;;;;;;9.80;3.83;;;8.40;99.90;;;;;;5063299;28;20408;-65
2023/01/04 01:29:42;;;;;;;9.18;3.30;;;8.30;99.90;;;;;;5088273;28;20446;-65
2023/01/04 01:32:08;;;;;;;9.95;3.33;;;8.40;99.90;;;;;;5058456;28;20056;-65
2023/01/04 01:34:33;;;;;;;7.95;3.92;;;8.40;99.90;;;;;;5087134;28;20048;-65
2023/01/04 01:36:59;;;;;;;6.82;3.10;;;8.40;99.90;;;;;;5076364;28;20492;-65
2023/01/04 01:39:25;;;;;;;7.90;3.47;;;8.30;99.90;;;;;;5073011;28;20123;-65
2023/01/04 01:41:50;;;;;;;8.65;3.40;;;8.30;99.90;;;;;;5088340;28;20044;-65
2023/01/04 01:44:41;;;;;;;8.63;3.08;;;8.40;99.90;;;;;;5083481;28;20037;-65
2023/01/04 01:47:21;;;;;;;7.53;3.75;;;8.50;99.90;;;;;;5082195;28;20147;-65
2023/01/04 01:49:50;;;;;;;11.07;3.42;;;8.30;99.90;;;;;;5087423;28;20040;-65
2023/01/04 01:52:29;;;;;;;5.03;3.03;;;8.30;99.90;;;;;;5087161;28;20108;-65
2023/01/04 01:55:03;;;;;;;7.68;3.30;;;8.40;99.90;;;;;;5087269;28;20052;-65
2023/01/04 01:57:32;;;;;;;7.30;3.38;;;8.50;99.90;;;;;;5087122;28;20087;-65
2023/01/04 02:00:03;;;;;;;9.10;3.10;;;8.50;99.90;;;;;;5057612;28;20098;-65
2023/01/04 02:02:29;;;;;;;5.95;3.35;;;8.30;99.90;;;;;;5086408;28;20037;-65
2023/01/04 02:04:55;;;;;;;7.10;3.58;;;8.40;99.90;;;;;;5086931;28;20041;-65
2023/01/04 02:07:25;;;;;;;8.05;3.60;;;8.30;99.90;;;;;;5087299;28;20033;-64
2023/01/04 02:09:51;;;;;;;7.22;3.38;;;8.50;99.90;;;;;;5069749;28;20048;-65
2023/01/04 02:12:17;;;;;;;8.52;3.85;;;8.50;99.90;;;;;;5060789;28;20052;-65
2023/01/04 02:14:46;;;;;;;7.25;4.00;;;8.30;99.90;;;;;;5087399;28;20049;-65
2023/01/04 02:17:30;;;;;;;6.28;3.70;;;8.30;99.90;;;;;;5087719;28;20484;-65
2023/01/04 02:20:11;;;;;;;10.13;3.80;;;8.50;99.90;;;;;;5084314;28;20220;-65
2023/01/04 02:22:58;;;;;;;8.38;3.60;;;8.50;99.90;;;;;;5085403;28;20036;-65
2023/01/04 02:26:04;;;;;;;5.40;2.83;;;8.30;99.90;;;;;;5086656;28;20036;-65
2023/01/04 02:28:51;;;;;;;7.10;3.65;;;8.50;99.90;;;;;;4969450;28;20054;-65
2023/01/04 02:31:28;;;;;;;6.78;3.70;;;8.60;99.90;;;;;;4985111;28;20047;-65
2023/01/04 02:34:04;;;;;;;6.35;3.13;;;8.40;99.90;;;;;;4985146;28;20507;-65
2023/01/04 02:37:06;;;;;;;5.65;3.08;;;8.40;99.90;;;;;;4985572;28;20047;-65
2023/01/04 02:40:07;;;;;;;4.05;2.67;;;8.50;99.90;;;;;;4985525;28;20135;-65
2023/01/04 02:46:12;;;;;;;;;;;8.50;99.90;;;;;;4981776;28;20054;-65
2023/01/04 02:51:27;;;;;;;3.95;2.60;;;8.50;99.90;;;;;;4985922;28;20043;-65
2023/01/04 02:53:54;;;;;;;5.83;3.00;;;8.50;99.90;;;;;;4984822;28;20106;-65
2023/01/04 02:56:43;;;;;;;4.35;2.63;;;8.60;99.90;;;;;;4969148;28;20059;-65
2023/01/04 02:59:42;;;;;;;3.80;2.33;;;8.40;99.90;;;;;;4985641;28;20053;-65
2023/01/04 03:06:16;;;;;;;3.88;2.20;;;8.50;99.90;;;;;;5097869;28;20041;-65
2023/01/04 03:08:45;;;;;;;4.18;2.35;;;8.70;99.90;;;;;;5007890;28;20061;-65
2023/01/04 03:14:18;;;;;;;4.43;2.67;;;8.60;99.90;;;;;;5012427;28;20054;-65
2023/01/04 03:16:46;;;;;;;4.30;2.70;;;8.60;99.90;;;;;;5023963;28;20526;-65
2023/01/04 03:19:50;;;;;;;5.32;2.50;;;8.70;99.90;;;;;;5023955;28;20057;-65
2023/01/04 03:22:02;;;;;;;5.70;2.65;;;8.70;99.90;;;;;;5023587;28;20057;-65
2023/01/04 03:36:12;;;;;;;7.20;2.53;;;8.70;99.90;;;;;;5023940;28;20431;-65
2023/01/04 03:50:51;;;;;;;4.07;2.60;;;9.10;99.90;;;;;;4997150;28;20058;-65
2023/01/04 03:53:19;;;;;;;3.92;2.90;;;9.00;99.90;;;;;;4987775;28;20093;-65
2023/01/04 03:55:47;;;;;;;4.43;2.63;;;9.10;99.90;;;;;;4987725;28;20117;-65
2023/01/04 03:58:13;;;;;;;4.78;2.40;;;9.30;99.90;;;;;;5004009;28;20050;-65
2023/01/04 04:00:38;;;;;;;3.78;2.42;;;9.30;99.90;;;;;;5003738;28;20034;-65
2023/01/04 04:03:06;;;;;;;5.70;2.70;;;9.20;99.90;;;;;;5003462;28;20054;-65
2023/01/04 04:08:28;;;;;;;3.70;2.53;;;9.30;99.90;;;;;;4987033;28;20046;-65
2023/01/04 04:13:49;;;;;;;5.55;2.50;;;9.60;99.90;;;;;;4999480;28;22263;-65
2023/01/04 04:16:15;;;;;;;3.13;2.45;;;9.60;99.90;;;;;;5065857;28;20060;-65
2023/01/04 04:18:41;;;;;;;4.85;2.67;;;9.60;99.90;;;;;;5085221;28;20128;-65
2023/01/04 04:21:07;;;;;;;2.78;2.55;;;9.40;99.90;;;;;;5090893;28;20086;-65
2023/01/04 04:23:33;;;;;;;3.17;2.75;;;9.60;99.90;;;;;;5085218;28;20550;-65
2023/01/04 04:25:59;;;;;;;2.88;2.42;;;9.70;99.90;;;;;;5067476;28;20048;-65
2023/01/04 04:28:25;;;;;;;4.22;2.33;;;9.80;99.90;;;;;;5085080;28;20592;-65
2023/01/04 04:30:51;;;;;;;3.42;2.53;;;9.60;99.90;;;;;;5085277;28;20405;-65
2023/01/04 04:33:16;;;;;;;4.03;2.60;;;9.70;99.90;;;;;;5085093;28;20052;-65
2023/01/04 04:35:42;;;;;;;5.68;2.63;;;9.70;99.90;;;;;;5085134;28;20043;-65
2023/01/04 04:38:08;;;;;;;4.28;3.00;;;9.90;99.90;;;;;;5085053;28;20046;-65
2023/01/04 04:43:18;;;;;;;2.85;2.45;;;9.70;99.90;;;;;;5084736;28;20422;-65
2023/01/04 04:45:44;;;;;;;3.92;2.50;;;9.80;99.90;;;;;;5065871;28;20047;-65
2023/01/04 04:48:09;;;;;;;3.80;2.42;;;9.80;99.90;;;;;;5084023;28;20655;-65
2023/01/04 04:50:35;;;;;;;2.25;1.92;;;9.90;99.90;;;;;;5066636;28;20047;-65
2023/01/04 04:53:01;;;;;;;3.30;2.58;;;9.80;99.90;;;;;;5084059;28;20043;-65
2023/01/04 04:55:26;;;;;;;3.20;2.40;;;9.80;99.90;;;;;;5084284;28;20096;-65
2023/01/04 04:57:52;;;;;;;3.50;2.60;;;9.90;99.90;;;;;;5069127;28;20044;-65
2023/01/04 05:00:17;;;;;;;3.70;2.22;;;10.00;99.90;;;;;;5092719;28;20044;-65
2023/01/04 05:02:43;;;;;;;4.22;2.90;;;9.90;99.90;;;;;;5088221;28;20041;-65
2023/01/04 05:05:09;;;;;;;3.40;2.85;;;10.10;99.90;;;;;;5088223;28;20033;-66
2023/01/04 05:07:35;;;;;;;3.85;2.78;;;10.00;99.90;;;;;;5088348;28;20571;-65
2023/01/04 05:10:00;;;;;;;4.10;3.35;;;10.00;99.90;;;;;;5088889;28;20087;-66
2023/01/04 05:15:10;;;;;;;4.80;3.55;;;10.20;99.90;;;;;;5079621;28;20100;-65
2023/01/04 05:17:36;;;;;;;3.70;3.20;;;10.30;99.90;;;;;;5088298;28;20040;-66
2023/01/04 05:20:02;;;;;;;4.22;3.72;;;10.10;99.90;;;;;;5088889;28;20504;-66
2023/01/04 05:22:28;;;;;;;5.60;4.03;;;10.10;99.90;;;;;;5067884;28;20049;-66
2023/01/04 05:24:53;;;;;;;4.90;4.40;;;10.20;99.90;;;;;;5069937;28;20040;-66
2023/01/04 05:27:19;;;;;;;6.15;4.65;;;10.20;99.90;;;;;;5087559;28;20111;-65
2023/01/04 05:32:29;;;;;;;5.35;4.30;;;10.20;99.90;;;;;;5088149;28;20052;-66
2023/01/04 05:34:55;;;;;;;4.85;4.35;;;10.30;99.90;;;;;;5088404;28;20037;-66
2023/01/04 05:37:20;;;;;;;5.82;5.10;;;10.40;99.90;;;;;;5090062;28;20050;-66
2023/01/04 05:39:46;;;;;;;8.15;5.32;;;10.50;99.90;;;;;;5088145;28;20048;-66
2023/01/04 05:42:24;;;;;;;6.57;5.00;;;10.30;99.90;;;;;;5088025;28;20124;-65
2023/01/04 05:44:50;;;;;;;6.65;5.47;;;10.50;99.90;;;;;;5088229;28;20458;-65
2023/01/04 05:47:16;;;;;;;10.60;5.85;;;10.50;99.90;;;;;;5087356;28;20048;-66
2023/01/04 05:49:42;;;;;;;7.30;6.03;;;10.30;99.90;;;;;;5087378;28;20040;-66
2023/01/04 05:52:08;;;;;;;7.30;5.75;;;10.40;99.90;;;;;;5087005;28;20032;-66
2023/01/04 05:54:33;;;;;;;7.63;6.10;;;10.60;99.90;;;;;;5087388;28;20068;-66
2023/01/04 05:56:59;;;;;;;8.35;7.03;;;10.50;99.90;;;;;;5087609;28;20088;-66
2023/01/04 05:59:25;;;;;;;8.73;6.05;;;10.40;99.90;;;;;;5070080;28;20071;-66
2023/01/04 06:01:50;;;;;;;7.35;6.65;;;10.60;99.90;;;;;;5087485;28;20036;-66
2023/01/04 06:04:16;;;;;;;8.65;6.85;;;10.60;99.90;;;;;;5087879;28;20045;-66
2023/01/04 06:06:45;;;;;;;7.90;6.47;;;10.40;99.90;;;;;;5087675;28;20041;-66
2023/01/04 06:09:11;;;;;;;9.55;6.65;;;10.30;99.90;;;;;;5069130;28;20063;-66
2023/01/04 06:11:36;;;;;;;9.70;6.68;;;10.50;99.90;;;;;;5068892;28;20051;-66
2023/01/04 06:14:02;;;;;;;13.23;7.32;;;10.80;99.90;;;;;;5086991;28;20504;-66
2023/01/04 06:16:28;;;;;;;10.02;6.72;;;10.40;99.90;;;;;;5089935;28;20076;-66
2023/01/04 06:18:54;;;;;;;11.50;7.28;;;10.40;99.90;;;;;;5069476;28;20051;-66
2023/01/04 06:21:19;;;;;;;8.20;6.80;;;10.40;99.90;;;;;;5086336;28;20090;-66
2023/01/04 06:23:45;;;;;;;10.25;6.85;;;10.40;99.90;;;;;;5069560;28;20052;-66
2023/01/04 06:26:11;;;;;;;10.13;6.93;;;10.40;99.90;;;;;;5069593;28;20073;-66
2023/01/04 06:28:36;;;;;;;7.88;6.53;;;10.60;99.90;;;;;;5086494;28;20036;-66
2023/01/04 06:31:04;;;;;;;10.98;7.03;;;10.50;99.90;;;;;;5086643;28;20057;-66
2023/01/04 06:33:30;;;;;;;11.82;6.35;;;10.60;99.90;;;;;;5086451;28;20051;-66
2023/01/04 06:35:56;;;;;;;10.93;6.40;;;10.70;99.90;;;;;;5086518;28;20129;-66
2023/01/04 06:38:21;;;;;;;9.88;6.68;;;10.70;99.90;;;;;;5083888;28;20409;-66
2023/01/04 06:40:47;;;;;;;11.13;7.28;;;10.70;99.90;;;;;;5086219;28;20032;-66
2023/01/04 06:43:13;;;;;;;14.45;6.43;;;10.70;99.90;;;;;;5069168;28;20072;-66
2023/01/04 06:45:38;;;;;;;11.73;6.97;;;10.60;99.90;;;;;;5068908;28;20052;-66
2023/01/04 06:48:04;;;;;;;9.50;5.97;;;10.60;99.90;;;;;;5086839;28;20037;-66
2023/01/04 06:50:30;;;;;;;10.40;6.25;;;10.60;99.90;;;;;;5086306;28;20049;-66
2023/01/04 06:52:55;;;;;;;7.35;5.35;;;10.70;99.90;;;;;;5071002;28;20040;-65
2023/01/04 06:55:21;;;;;;;11.95;6.03;;;10.80;99.90;;;;;;5069029;28;20055;-66
2023/01/04 06:57:46;;;;;;;6.47;4.82;;;10.70;99.90;;;;;;5085872;28;20403;-66
2023/01/04 07:00:13;;;;;;;6.90;5.32;;;10.70;99.90;;;;;;5086016;28;20100;-66
2023/01/04 07:02:38;;;;;;;7.40;5.80;;;10.70;99.90;;;;;;5067969;28;20072;-65
2023/01/04 07:05:04;;;;;;;6.30;5.05;;;10.60;99.90;;;;;;5068938;28;20048;-65
2023/01/04 07:07:31;;;;;;;5.78;5.00;;;10.60;99.90;;;;;;5068586;28;20043;-66
2023/01/04 07:09:57;;;;;;;4.90;4.20;;;10.60;99.90;;;;;;5086461;28;20079;-65
2023/01/04 07:12:23;;;;;;;5.40;4.55;;;10.80;99.90;;;;;;5067928;28;20369;-65
2023/01/04 07:14:48;;;;;;;5.45;4.38;;;10.70;99.90;;;;;;5086537;28;20509;-65
2023/01/04 07:17:14;;;;;;;5.68;4.30;;;10.60;99.90;;;;;;5086143;28;20072;-65
2023/01/04 07:19:40;;;;;;;5.47;4.85;;;10.70;99.90;;;;;;5085631;28;20040;-65
2023/01/04 07:22:06;;;;;;;5.97;4.15;;;10.60;99.90;;;;;;5085279;28;20037;-65
2023/01/04 07:24:31;;;;;;;5.50;4.40;;;10.70;99.90;;;;;;5086382;28;20493;-65
2023/01/04 07:27:00;;;;;;;4.60;3.83;;;10.80;99.90;;;;;;5069285;28;20037;-65
2023/01/04 07:29:26;;;;;;;4.80;3.90;;;10.80;99.90;;;;;;5076664;28;20045;-65
2023/01/04 07:31:53;;;;;;;4.57;3.47;;;10.80;99.90;;;;;;5095736;28;20049;-65
2023/01/04 07:34:21;;;;;;;4.47;3.40;;;10.90;99.90;;;;;;5076244;28;20060;-65
2023/01/04 07:36:48;;;;;;;6.10;3.90;;;10.90;99.90;;;;;;5082089;28;20084;-65
2023/01/04 07:39:15;;;;;;;4.28;3.70;;;10.70;99.90;;;;;;5048241;28;20053;-65
2023/01/04 07:41:41;;;;;;;5.43;3.50;;;10.70;99.90;;;;;;5071395;28;20044;-65
2023/01/04 07:44:08;;;;;;;4.50;3.15;;;10.90;99.90;;;;;;5075862;28;20048;-65
2023/01/04 07:46:34;;;;;;;4.95;3.47;;;11.00;99.90;;;;;;5085667;28;20035;-65
2023/01/04 07:49:00;;;;;;;3.72;3.13;;;10.70;99.90;;;;;;5067639;28;20048;-65
2023/01/04 07:51:26;;;;;;;4.97;3.30;;;10.80;99.90;;;;;;5085176;28;20246;-65
2023/01/04 07:53:52;;;;;;;4.45;3.20;;;10.90;99.90;;;;;;5067190;28;20120;-65
2023/01/04 07:56:18;;;;;;;5.07;3.35;;;10.90;99.90;;;;;;5066967;28;20041;-65
2023/01/04 07:58:43;;;;;;;3.50;3.20;;;10.80;99.90;;;;;;5085857;28;20047;-65
2023/01/04 08:01:17;;;;;;;3.67;2.97;;;10.70;99.90;;;;;;5072129;28;20041;-65
2023/01/04 08:03:45;;;;;;;5.25;2.95;;;11.00;99.90;;;;;;5085817;28;20048;-65
2023/01/04 08:06:12;;;;;;;5.20;2.90;;;10.90;99.90;;;;;;5081690;28;20044;-65
2023/01/04 08:08:38;;;;;;;4.78;2.80;;;11.00;99.90;;;;;;5069654;28;20051;-65
2023/01/04 08:11:13;;;;;;;5.15;2.65;;;10.80;99.90;;;;;;5069416;28;20036;-65
2023/01/04 08:13:39;;;;;;;4.32;2.60;;;11.20;99.90;;;;;;5084888;28;20048;-65
2023/01/04 08:16:05;;;;;;;3.78;2.80;;;11.00;99.90;;;;;;5066616;28;20044;-65
2023/01/04 08:18:31;;;;;;;6.75;3.13;;;11.00;99.90;;;;;;5084912;28;20488;-65
2023/01/04 08:21:06;;;;;;;3.50;2.92;;;11.10;99.90;;;;;;5064797;28;20067;-65
2023/01/04 08:23:33;;;;;;;4.10;3.30;;;10.90;99.90;;;;;;5076920;28;20071;-65
2023/01/04 08:26:08;;;;;;;5.45;3.42;;;11.10;99.90;;;;;;5085431;28;20044;-65
2023/01/04 08:28:34;;;;;;;4.05;2.97;;;10.90;99.90;;;;;;5084983;28;20119;-66
2023/01/04 08:31:05;;;;;;;4.68;3.05;;;11.20;99.90;;;;;;5084842;28;20047;-66
2023/01/04 08:33:32;;;;;;;4.30;2.90;;;11.10;99.90;;;;;;5084542;28;20056;-66
2023/01/04 08:36:09;;;;;;;5.38;3.22;;;11.30;99.90;;;;;;5066414;28;20040;-65
2023/01/04 08:38:35;;;;;;;4.18;2.75;;;11.20;99.90;;;;;;5084529;28;20036;-66
2023/01/04 08:41:00;;;;;;;4.30;3.00;;;11.10;99.90;;;;;;5080438;28;20168;-65
2023/01/04 08:43:26;;;;;;;8.07;3.80;;;11.30;99.90;;;;;;5084283;28;20294;-66
2023/01/04 08:45:52;;;;;;;5.72;3.60;;;11.30;99.90;;;;;;5086350;28;20044;-66
2023/01/04 08:48:17;;;;;;;5.40;3.45;;;11.30;99.90;;;;;;5084944;28;20041;-66
2023/01/04 08:50:43;;;;;;;6.07;3.90;;;11.30;99.90;;;;;;5066921;28;20048;-66
2023/01/04 08:53:11;;;;;;;4.88;3.67;;;11.10;99.90;;;;;;5085003;28;20033;-66
2023/01/04 08:55:37;;;;;;;6.03;3.63;;;11.40;99.90;;;;;;5085132;28;20033;-66
2023/01/04 08:58:04;;;;;;;5.60;2.75;;;11.20;99.90;;;;;;5066862;28;20048;-66
2023/01/04 09:00:29;;;;;;;5.93;3.00;;;11.20;99.90;;;;;;5084411;28;20047;-66
2023/01/04 09:02:55;;;;;;;3.13;2.72;;;11.40;99.90;;;;;;5067095;28;20076;-65
2023/01/04 09:05:21;;;;;;;4.15;2.83;;;11.30;99.90;;;;;;5084152;28;20072;-66
2023/01/04 09:07:47;;;;;;;4.35;2.78;;;11.20;99.90;;;;;;5084958;28;20051;-66
2023/01/04 09:10:13;;;;;;;3.05;2.60;;;11.40;99.90;;;;;;5083991;28;20048;-66
2023/01/04 09:12:38;;;;;;;5.43;3.00;;;11.50;99.90;;;;;;5085080;28;20051;-65
2023/01/04 09:15:05;;;;;;;4.93;2.78;;;11.50;99.90;;;;;;5084753;28;20036;-65
2023/01/04 09:17:30;;;;;;;2.80;2.50;;;11.50;99.90;;;;;;5066992;28;20036;-66
2023/01/04 09:19:56;;;;;;;3.67;2.60;;;11.20;99.90;;;;;;5066796;28;20055;-65
2023/01/04 09:22:22;;;;;;;4.07;2.95;;;11.50;99.90;;;;;;5084717;28;20092;-65
2023/01/04 09:24:47;;;;;;;3.08;2.15;;;11.40;99.90;;;;;;5085301;28;20037;-65
2023/01/04 09:27:13;;;;;;;4.22;2.20;;;11.60;99.90;;;;;;5074881;28;20040;-66
2023/01/04 09:29:40;;;;;;;2.25;2.00;;;11.60;99.90;;;;;;5083761;28;20048;-66
2023/01/04 09:32:05;;;;;;;2.42;2.00;;;11.50;99.90;;;;;;5065880;28;20078;-65
2023/01/04 09:34:31;;;;;;;3.13;1.75;;;11.20;99.90;;;;;;5083685;28;20104;-66
2023/01/04 09:36:57;;;;;;;2.10;1.90;;;11.40;99.90;;;;;;5084894;28;20040;-66
2023/01/04 09:39:25;;;;;;;2.35;2.00;;;11.40;99.90;;;;;;5081987;28;20053;-65
2023/01/04 09:41:56;;;;;;;2.83;1.70;;;11.30;99.90;;;;;;5075225;28;20060;-65
2023/01/04 09:44:40;;;;;;;3.97;2.00;;;11.40;99.90;;;;;;5064369;28;20104;-66
2023/01/04 09:47:17;;;;;;;3.25;1.90;;;11.60;99.90;;;;;;5080214;28;20066;-65
2023/01/04 09:49:54;;;;;;;2.28;1.77;;;11.20;99.90;;;;;;5067803;28;20060;-65
2023/01/04 09:52:36;;;;;;;3.50;1.58;;;11.50;99.90;;;;;;5081907;28;20036;-65
2023/01/04 09:55:08;;;;;;;2.67;1.88;;;11.40;99.90;;;;;;5078690;28;20040;-65
2023/01/04 09:57:44;;;;;;;1.42;1.33;;;11.60;99.90;;;;;;5088075;28;20033;-66
2023/01/04 10:00:19;;;;;;;2.22;1.70;;;11.40;99.90;;;;;;5087301;28;20087;-65
2023/01/04 10:02:55;;;;;;;2.70;1.40;;;11.20;99.90;;;;;;5087031;28;20547;-65
2023/01/04 10:05:25;;;;;;;1.70;1.50;;;11.40;99.90;;;;;;5082430;28;20032;-65
2023/01/04 10:07:51;;;;;;;2.28;1.42;;;11.60;99.90;;;;;;5087764;28;20048;-65
2023/01/04 10:10:37;;;;;;;2.00;1.58;;;11.50;99.90;;;;;;5087675;28;20040;-65
2023/01/04 10:13:33;;;;;;;2.83;1.50;;;11.30;99.90;;;;;;5087555;28;20040;-65
2023/01/04 10:16:08;;;;;;;2.38;1.40;;;11.50;99.90;;;;;;5082326;28;20057;-65
2023/01/04 10:18:55;;;;;;;1.98;1.40;;;11.60;99.90;;;;;;5086788;28;20041;-65
2023/01/04 10:21:42;;;;;;;1.60;1.30;;;11.40;99.90;;;;;;5086543;28;20045;-65
2023/01/04 10:24:20;;;;;;;2.22;1.50;;;11.60;99.90;;;;;;5068652;28;20445;-65
2023/01/04 10:26:50;;;;;;;2.20;1.27;;;11.20;99.90;;;;;;5086541;28;20072;-65
2023/01/04 10:29:42;;;;;;;2.00;1.80;;;11.50;99.90;;;;;;5086843;28;20115;-65
2023/01/04 10:32:25;;;;;;;4.05;1.98;;;11.60;99.90;;;;;;5077836;28;20044;-65
2023/01/04 10:34:52;;;;;;;3.88;1.70;;;11.60;99.90;;;;;;5085315;28;20047;-65
2023/01/04 10:37:19;;;;;;;4.50;1.80;;;11.70;99.90;;;;;;5087149;28;20068;-65
2023/01/04 10:39:50;;;;;;;5.40;2.08;;;11.40;99.90;;;;;;5073551;28;20059;-65
2023/01/04 10:42:27;;;;;;;5.00;2.05;;;11.90;99.90;;;;;;5090893;28;20051;-65
2023/01/04 10:44:53;;;;;;;7.72;2.72;;;11.70;99.90;;;;;;5080798;28;20087;-65
2023/01/04 10:47:44;;;;;;;6.43;2.42;;;11.60;99.90;;;;;;5086810;28;20048;-65
2023/01/04 10:50:26;;;;;;;6.43;2.30;;;11.60;99.90;;;;;;5069269;28;20055;-65
2023/01/04 10:53:13;;;;;;;8.25;2.30;;;11.80;99.90;;;;;;5068111;28;20048;-65
2023/01/04 10:56:07;;;;;;;9.57;2.47;;;11.80;99.90;;;;;;5086527;28;20078;-65
2023/01/04 10:58:42;;;;;;;12.27;2.65;;;11.80;99.90;;;;;;5068958;28;20387;-65
2023/01/04 11:01:15;;;;;;;11.63;2.83;;;11.90;99.90;;;;;;5068603;28;20131;-65
2023/01/04 11:03:51;;;;;;;11.13;3.67;;;11.90;99.90;;;;;;5086268;28;20045;-65
2023/01/04 11:07:12;;;;;;;13.85;2.97;;;12.00;99.90;;;;;;5086811;28;20056;-65
2023/01/04 11:09:46;;;;;;;13.88;3.47;;;11.90;99.90;;;;;;5024325;28;20057;-65
2023/01/04 11:12:16;;;;;;;12.18;3.35;;;12.00;99.90;;;;;;5007314;28;20111;-65
2023/01/04 11:14:42;;;;;;;14.57;3.13;;;11.90;99.90;;;;;;5024570;28;20085;-65
2023/01/04 11:17:10;;;;;;;19.33;3.65;;;12.10;99.90;;;;;;5007587;28;20069;-64
2023/01/04 11:19:36;;;;;;;15.05;4.03;;;12.00;99.90;;;;;;5004221;28;20170;-65
2023/01/04 11:22:17;;;;;;;16.25;2.97;;;12.20;99.90;;;;;;5006530;28;20037;-65
2023/01/04 11:24:45;;;;;;;11.38;3.10;;;12.10;99.90;;;;;;5024309;28;20058;-64
2023/01/04 11:27:15;;;;;;;19.17;3.78;;;12.10;99.90;;;;;;5007886;28;20140;-65
2023/01/04 11:30:02;;;;;;;16.73;3.45;;;12.10;99.90;;;;;;5023870;28;20061;-65
2023/01/04 11:32:59;;;;;;;15.65;3.60;;;12.10;99.90;;;;;;5014355;28;20045;-65
2023/01/04 11:35:45;;;;;;;23.90;3.95;;;12.10;99.90;;;;;;4995408;28;20069;-65
2023/01/04 11:38:16;;;;;;;13.52;3.42;;;12.20;99.90;;;;;;5024112;28;20446;-65
2023/01/04 11:41:00;;;;;;;15.38;3.28;;;12.00;99.90;;;;;;5023777;28;20046;-65
2023/01/04 11:43:29;;;;;;;16.23;3.00;;;12.20;99.90;;;;;;5006685;28;20045;-64
2023/01/04 11:46:01;;;;;;;16.58;3.28;;;12.20;99.90;;;;;;5081852;28;20056;-65
2023/01/04 11:48:40;;;;;;;15.93;2.97;;;12.30;99.90;;;;;;5085129;28;20047;-65
2023/01/04 11:51:22;;;;;;;15.93;3.45;;;12.30;99.90;;;;;;5086139;28;20045;-65
2023/01/04 11:53:56;;;;;;;15.32;3.90;;;12.30;99.90;;;;;;5085852;28;20045;-65
2023/01/04 11:56:24;;;;;;;15.80;3.40;;;12.30;99.90;;;;;;5085457;28;20044;-65
2023/01/04 11:59:03;;;;;;;16.10;3.33;;;12.50;99.90;;;;;;5085863;28;20396;-64
2023/01/04 12:01:31;;;;;;;18.35;3.15;;;12.50;99.90;;;;;;5086082;28;20044;-65
2023/01/04 12:03:58;;;;;;;11.32;2.40;;;12.40;99.90;;;;;;5085480;28;20062;-65
2023/01/04 12:06:33;;;;;;;18.70;3.67;;;12.50;99.90;;;;;;5085009;28;20044;-65
2023/01/04 12:08:59;;;;;;;17.25;3.42;;;12.50;99.90;;;;;;5085930;28;20450;-65
2023/01/04 12:11:31;;;;;;;12.60;2.45;;;12.60;99.90;;;;;;5084970;28;20096;-65
2023/01/04 12:14:00;;;;;;;16.27;3.05;;;12.50;99.90;;;;;;5085564;28;20044;-65
2023/01/04 12:17:03;;;;;;;9.97;2.60;;;12.50;99.90;;;;;;5085663;28;20036;-65
2023/01/04 12:19:29;;;;;;;12.63;2.67;;;12.50;99.90;;;;;;5067657;28;20036;-65
2023/01/04 12:21:58;;;;;;;7.22;1.67;;;12.50;99.90;;;;;;5067549;28;20106;-65
2023/01/04 12:24:33;;;;;;;10.90;2.95;;;12.60;99.90;;;;;;5085017;28;20506;-64
2023/01/04 12:27:00;;;;;;;7.35;1.95;;;12.50;99.90;;;;;;5085027;28;20048;-65
2023/01/04 12:29:52;;;;;;;12.13;2.78;;;12.50;99.90;;;;;;5085573;28;20040;-65
2023/01/04 12:32:18;;;;;;;9.77;2.42;;;12.50;99.90;;;;;;5044567;28;20064;-65
2023/01/04 12:34:46;;;;;;;9.73;2.33;;;12.50;99.90;;;;;;5047340;28;20040;-65
2023/01/04 12:37:37;;;;;;;11.15;2.63;;;12.50;99.90;;;;;;5047440;28;20044;-64
2023/01/04 12:40:41;;;;;;;11.50;1.92;;;12.60;99.90;;;;;;5065368;28;20222;-65
2023/01/04 12:43:16;;;;;;;12.48;2.72;;;12.50;99.90;;;;;;5022324;28;20061;-65
2023/01/04 12:45:43;;;;;;;5.47;1.65;;;12.50;99.90;;;;;;5063852;28;20083;-65
2023/01/04 12:51:25;;;;;;;7.18;1.88;;;12.40;99.90;;;;;;5065279;28;20049;-64
2023/01/04 12:54:02;;;;;;;9.48;2.05;;;12.50;99.90;;;;;;5064901;28;20068;-65
2023/01/04 12:57:06;;;;;;;6.95;1.48;;;12.60;99.90;;;;;;5064888;28;20073;-64
2023/01/04 12:59:51;;;;;;;7.13;1.45;;;12.70;99.90;;;;;;5064298;28;20033;-64
2023/01/04 13:02:28;;;;;;;5.20;1.20;;;12.60;99.90;;;;;;5046332;28;20105;-64
2023/01/04 13:05:00;;;;;;;6.30;1.48;;;12.60;99.90;;;;;;5043888;28;20052;-64
2023/01/04 13:07:32;;;;;;;9.88;1.50;;;12.60;99.90;;;;;;5063412;28;20096;-64
2023/01/04 13:10:20;;;;;;;10.30;1.55;;;12.60;99.90;;;;;;5064953;28;20176;-65
2023/01/04 13:12:45;;;;;;;11.10;1.83;;;12.60;99.90;;;;;;5054599;28;20041;-65
2023/01/04 13:15:31;;;;;;;6.63;1.50;;;12.50;99.90;;;;;;5063868;28;20041;-64
2023/01/04 13:17:57;;;;;;;15.05;3.08;;;12.60;99.90;;;;;;5064638;28;20044;-64
2023/01/04 13:20:24;;;;;;;10.90;2.58;;;12.60;99.90;;;;;;5050028;28;20075;-64
2023/01/04 13:22:56;;;;;;;16.73;1.85;;;12.50;99.90;;;;;;5049854;28;20128;-65
2023/01/04 13:25:23;;;;;;;15.48;3.63;;;12.60;99.90;;;;;;5049618;28;20045;-65
2023/01/04 13:27:56;;;;;;;15.13;2.90;;;12.40;99.90;;;;;;5067826;28;20045;-64
2023/01/04 13:30:27;;;;;;;12.63;2.53;;;12.50;99.90;;;;;;5056509;28;20048;-64
2023/01/04 13:32:53;;;;;;;12.20;2.95;;;12.50;99.90;;;;;;5087851;28;20080;-64
2023/01/04 13:35:19;;;;;;;9.60;2.70;;;12.40;99.90;;;;;;5073897;28;20040;-64
2023/01/04 13:37:47;;;;;;;14.95;3.05;;;12.40;99.90;;;;;;5095161;28;20036;-64
2023/01/04 13:40:28;;;;;;;16.13;3.00;;;12.40;99.90;;;;;;5088445;28;20053;-64
2023/01/04 13:43:35;;;;;;;14.18;2.78;;;12.30;99.90;;;;;;5088328;28;20040;-64
2023/01/04 13:46:22;;;;;;;16.83;3.60;;;12.40;99.90;;;;;;5081628;28;20048;-64
2023/01/04 13:48:52;;;;;;;15.30;2.88;;;12.40;99.90;;;;;;5059792;28;20048;-64
2023/01/04 13:51:29;;;;;;;13.63;2.95;;;12.40;99.90;;;;;;5088271;28;20158;-65
2023/01/04 13:53:57;;;;;;;13.00;3.13;;;12.30;99.90;;;;;;5088042;28;20563;-64
2023/01/04 13:56:26;;;;;;;14.80;2.72;;;12.30;99.90;;;;;;5087605;28;20032;-65
2023/01/04 13:58:52;;;;;;;20.10;4.15;;;12.40;99.90;;;;;;5087684;28;20072;-64
2023/01/04 14:01:23;;;;;;;17.30;3.28;;;12.30;99.90;;;;;;5088073;28;20511;-64